createdAt,value
2023-08-17T00:00:41.318Z,8.45
2023-08-17T00:04:53.819Z,7.18
2023-08-17T00:09:06.504Z,5.35
2023-08-17T00:13:18.986Z,8.40
2023-08-17T00:17:32.159Z,8.10
2023-08-17T00:21:46.725Z,6.07
2023-08-17T00:25:59.350Z,5.93
2023-08-17T00:30:12.604Z,5.72
2023-08-17T00:34:25.121Z,5.32
2023-08-17T00:38:37.578Z,5.50
2023-08-17T00:42:51.418Z,7.00
2023-08-17T00:47:04.062Z,7.47
2023-08-17T00:51:17.693Z,8.10
2023-08-17T00:55:30.481Z,9.00
2023-08-17T00:59:47.044Z,7.20
2023-08-17T01:04:04.588Z,8.23
2023-08-17T01:08:17.153Z,5.68
2023-08-17T01:13:13.639Z,5.78
2023-08-17T01:17:56.496Z,6.03
2023-08-17T01:22:13.278Z,5.97
2023-08-17T01:26:25.798Z,11.13
2023-08-17T01:31:05.030Z,9.52
2023-08-17T01:35:27.445Z,9.82
2023-08-17T01:39:46.593Z,8.15
2023-08-17T01:44:01.360Z,5.43
2023-08-17T01:48:13.968Z,6.53
2023-08-17T01:52:29.785Z,6.80
2023-08-17T01:56:42.311Z,6.38
2023-08-17T02:00:55.057Z,7.80
2023-08-17T02:05:07.947Z,5.65
2023-08-17T02:09:20.471Z,7.10
2023-08-17T02:13:33.033Z,5.75
2023-08-17T02:17:45.539Z,6.88
2023-08-17T02:21:58.128Z,8.52
2023-08-17T02:26:10.688Z,8.93
2023-08-17T02:30:23.168Z,9.68
2023-08-17T02:34:35.717Z,8.35
2023-08-17T02:38:48.231Z,12.02
2023-08-17T02:43:00.794Z,8.20
2023-08-17T02:47:13.358Z,7.50
2023-08-17T02:51:25.886Z,11.05
2023-08-17T02:55:38.429Z,8.00
2023-08-17T02:59:50.891Z,7.97
2023-08-17T03:04:03.415Z,7.70
2023-08-17T03:08:16.313Z,10.23
2023-08-17T03:12:28.794Z,8.02
2023-08-17T03:16:41.418Z,8.07
2023-08-17T03:20:53.971Z,9.75
2023-08-17T03:25:07.402Z,7.97
2023-08-17T03:29:20.001Z,8.25
2023-08-17T03:33:34.256Z,11.95
2023-08-17T03:37:47.314Z,8.90
2023-08-17T03:41:59.818Z,12.48
2023-08-17T03:46:12.401Z,6.45
2023-08-17T03:50:29.919Z,10.30
2023-08-17T03:54:42.432Z,7.28
2023-08-17T03:58:55.912Z,7.15
2023-08-17T04:03:09.168Z,7.40
2023-08-17T04:07:25.711Z,8.70
2023-08-17T04:11:38.838Z,9.18
2023-08-17T04:15:51.329Z,7.72
2023-08-17T04:20:03.838Z,8.23
2023-08-17T04:24:16.564Z,8.27
2023-08-17T04:28:29.104Z,12.40
2023-08-17T04:32:41.697Z,15.23
2023-08-17T04:36:54.175Z,9.00
2023-08-17T04:41:06.692Z,10.07
2023-08-17T04:45:19.327Z,8.93
2023-08-17T04:49:31.837Z,12.50
2023-08-17T04:53:44.365Z,7.93
2023-08-17T04:57:57.023Z,8.70
2023-08-17T05:02:09.664Z,9.32
2023-08-17T05:06:22.214Z,13.15
2023-08-17T05:10:34.746Z,11.65
2023-08-17T05:14:47.229Z,17.80
2023-08-17T05:19:01.350Z,11.85
2023-08-17T05:23:13.826Z,10.23
2023-08-17T05:27:26.560Z,11.38
2023-08-17T05:31:41.957Z,10.13
2023-08-17T05:35:57.723Z,8.65
2023-08-17T05:40:13.500Z,10.43
2023-08-17T05:44:26.015Z,7.38
2023-08-17T05:48:38.574Z,7.15
2023-08-17T05:52:51.083Z,11.10
2023-08-17T05:57:05.342Z,7.75
2023-08-17T06:01:17.888Z,11.50
2023-08-17T06:05:30.642Z,9.27
2023-08-17T06:09:43.208Z,7.07
2023-08-17T06:13:55.784Z,7.28
2023-08-17T06:18:08.388Z,6.65
2023-08-17T06:22:20.962Z,11.30
2023-08-17T06:26:33.493Z,11.30
2023-08-17T06:30:46.108Z,7.07
2023-08-17T06:34:59.203Z,9.30
2023-08-17T06:39:11.863Z,8.40
2023-08-17T06:43:24.822Z,6.95
2023-08-17T06:47:37.411Z,5.68
2023-08-17T06:51:50.113Z,6.32
2023-08-17T06:56:03.408Z,6.25
2023-08-17T07:00:16.397Z,5.80
2023-08-17T07:04:28.938Z,6.15
2023-08-17T07:08:41.502Z,5.93
2023-08-17T07:12:55.005Z,9.63
2023-08-17T07:17:07.547Z,6.30
2023-08-17T07:21:20.033Z,6.20
2023-08-17T07:25:32.648Z,5.97
2023-08-17T07:29:45.238Z,6.30
2023-08-17T07:33:57.760Z,5.57
2023-08-17T07:38:10.676Z,5.90
2023-08-17T07:42:24.833Z,4.78
2023-08-17T07:46:40.023Z,6.93
2023-08-17T07:50:54.526Z,4.43
2023-08-17T07:55:07.186Z,5.75
2023-08-17T07:59:19.644Z,7.50
2023-08-17T08:03:32.152Z,4.40
2023-08-17T08:07:44.676Z,4.78
2023-08-17T08:11:57.270Z,4.53
2023-08-17T08:16:09.861Z,5.75
2023-08-17T08:20:23.404Z,4.70
2023-08-17T08:24:38.330Z,4.20
2023-08-17T08:28:52.019Z,4.20
2023-08-17T08:33:04.796Z,3.75
2023-08-17T08:37:17.650Z,3.47
2023-08-17T08:41:31.727Z,4.10
2023-08-17T08:45:46.405Z,3.88
2023-08-17T08:50:04.513Z,3.63
2023-08-17T08:54:26.264Z,5.45
2023-08-17T08:58:40.981Z,4.53
2023-08-17T09:02:55.337Z,5.00
2023-08-17T09:07:10.364Z,4.38
2023-08-17T09:11:23.632Z,4.78
2023-08-17T09:15:37.057Z,3.30
2023-08-17T09:19:50.672Z,4.32
2023-08-17T09:24:03.809Z,4.85
2023-08-17T09:28:19.362Z,3.55
2023-08-17T09:32:33.904Z,3.97
2023-08-17T09:36:49.822Z,4.97
2023-08-17T09:41:02.968Z,3.40
2023-08-17T09:45:20.016Z,3.38
2023-08-17T09:49:36.633Z,4.10
2023-08-17T09:54:00.033Z,5.57
2023-08-17T09:58:17.414Z,4.55
2023-08-17T10:02:32.270Z,4.10
2023-08-17T10:06:45.701Z,3.92
2023-08-17T10:11:00.541Z,4.63
2023-08-17T10:15:20.163Z,4.78
2023-08-17T10:19:57.191Z,4.80
2023-08-17T10:24:10.934Z,4.72
2023-08-17T10:28:27.336Z,4.60
2023-08-17T10:32:46.908Z,5.82
2023-08-17T10:37:01.959Z,3.90
2023-08-17T10:41:18.610Z,3.92
2023-08-17T10:45:40.790Z,4.25
2023-08-17T10:49:58.462Z,5.32
2023-08-17T10:54:11.570Z,5.25
2023-08-17T10:58:24.792Z,3.90
2023-08-17T11:02:39.380Z,6.35
2023-08-17T11:07:05.734Z,4.30
2023-08-17T11:11:19.138Z,4.00
2023-08-17T11:15:44.347Z,3.58
2023-08-17T11:19:57.509Z,4.57
2023-08-17T11:24:12.905Z,3.75
2023-08-17T11:28:26.777Z,6.72
2023-08-17T11:32:41.294Z,3.63
2023-08-17T11:36:54.501Z,4.78
2023-08-17T11:41:17.968Z,4.22
2023-08-17T11:45:32.284Z,3.90
2023-08-17T11:49:47.211Z,5.05
2023-08-17T11:54:06.766Z,5.38
2023-08-17T11:58:19.850Z,4.10
2023-08-17T12:02:33.430Z,4.93
2023-08-17T12:06:47.705Z,4.47
2023-08-17T12:11:00.920Z,4.20
2023-08-17T12:15:14.096Z,4.10
2023-08-17T12:19:27.718Z,4.20
2023-08-17T12:23:41.986Z,6.00
2023-08-17T12:27:55.228Z,6.45
2023-08-17T12:32:09.884Z,4.43
2023-08-17T12:36:24.450Z,4.35
2023-08-17T12:40:37.615Z,3.65
2023-08-17T12:44:51.516Z,5.40
2023-08-17T12:49:04.917Z,4.18
2023-08-17T12:53:18.016Z,4.82
2023-08-17T12:57:31.186Z,3.80
2023-08-17T13:01:44.430Z,3.63
2023-08-17T13:05:57.916Z,3.85
2023-08-17T13:10:11.193Z,4.95
2023-08-17T13:14:26.992Z,3.50
2023-08-17T13:18:40.278Z,3.60
2023-08-17T13:22:53.466Z,3.75
2023-08-17T13:27:06.743Z,3.97
2023-08-17T13:31:24.901Z,3.60
2023-08-17T13:35:38.322Z,4.32
2023-08-17T13:39:51.381Z,4.43
2023-08-17T13:44:04.632Z,4.32
2023-08-17T13:48:17.900Z,4.30
2023-08-17T13:52:31.181Z,5.28
2023-08-17T13:56:44.367Z,4.47
2023-08-17T14:00:57.510Z,3.63
2023-08-17T14:05:10.779Z,6.45
2023-08-17T14:09:24.001Z,5.32
2023-08-17T14:13:38.219Z,5.25
2023-08-17T14:17:51.376Z,4.43
2023-08-17T14:22:05.070Z,5.40
2023-08-17T14:26:18.168Z,7.38
2023-08-17T14:30:30.666Z,5.25
2023-08-17T14:34:43.157Z,8.55
2023-08-17T14:38:56.351Z,7.15
2023-08-17T14:43:11.318Z,4.80
2023-08-17T14:47:24.953Z,5.28
2023-08-17T14:51:42.900Z,5.03
2023-08-17T15:00:16.628Z,5.15
2023-08-17T15:04:30.107Z,4.68
2023-08-17T15:08:43.311Z,4.68
2023-08-17T15:12:56.494Z,4.70
2023-08-17T15:17:14.166Z,4.15
2023-08-17T15:21:27.374Z,4.75
2023-08-17T15:25:40.506Z,5.15
2023-08-17T15:29:53.626Z,3.97
2023-08-17T15:34:06.928Z,4.32
2023-08-17T15:38:19.964Z,4.65
2023-08-17T15:42:33.023Z,4.53
2023-08-17T15:46:46.693Z,5.43
2023-08-17T15:50:59.349Z,4.68
2023-08-17T15:55:13.195Z,4.55
2023-08-17T15:59:26.343Z,4.75
2023-08-17T16:03:39.705Z,5.30
2023-08-17T16:07:52.860Z,4.95
2023-08-17T16:12:06.360Z,4.68
2023-08-17T16:16:18.892Z,4.35
2023-08-17T16:20:35.309Z,5.38
2023-08-17T16:24:47.816Z,5.30
2023-08-17T16:29:01.009Z,5.60
2023-08-17T16:33:16.421Z,4.72
2023-08-17T16:37:29.117Z,5.40
2023-08-17T16:41:42.272Z,7.47
2023-08-17T16:45:54.805Z,6.28
2023-08-17T16:50:07.700Z,5.18
2023-08-17T16:54:20.258Z,5.10
2023-08-17T16:58:32.798Z,8.60
2023-08-17T17:02:45.346Z,9.90
2023-08-17T17:06:58.324Z,2.55
2023-08-17T17:11:10.983Z,3.95
2023-08-17T17:15:24.207Z,4.68
2023-08-17T17:19:36.951Z,4.63
2023-08-17T17:23:49.443Z,4.68
2023-08-17T17:28:01.988Z,3.25
2023-08-17T17:32:14.469Z,2.38
2023-08-17T17:36:26.983Z,5.28
2023-08-17T17:40:39.508Z,3.80
2023-08-17T17:44:52.060Z,2.30
2023-08-17T17:49:04.563Z,3.15
2023-08-17T17:53:17.094Z,3.42
2023-08-17T17:57:29.864Z,2.25
2023-08-17T18:01:42.909Z,3.13
2023-08-17T18:05:55.402Z,2.35
2023-08-17T18:10:09.518Z,3.28
2023-08-17T18:14:22.002Z,3.17
2023-08-17T18:18:38.604Z,6.78
2023-08-17T18:22:52.096Z,3.67
2023-08-17T18:27:04.701Z,2.92
2023-08-17T18:31:17.663Z,3.00
2023-08-17T18:35:30.203Z,2.83
2023-08-17T18:39:42.790Z,6.38
2023-08-17T18:43:56.105Z,5.30
2023-08-17T18:48:08.643Z,3.20
2023-08-17T18:52:21.170Z,3.08
2023-08-17T18:56:34.286Z,3.92
2023-08-17T19:00:46.834Z,2.60
2023-08-17T19:05:01.366Z,3.60
2023-08-17T19:09:14.033Z,6.88
2023-08-17T19:13:26.561Z,2.75
2023-08-17T19:17:40.006Z,7.18
2023-08-17T19:21:52.868Z,8.75
2023-08-17T19:26:06.973Z,6.00
2023-08-17T19:30:20.159Z,4.40
2023-08-17T19:34:32.660Z,2.42
2023-08-17T19:38:45.121Z,4.72
2023-08-17T19:42:59.928Z,2.20
2023-08-17T19:47:18.978Z,3.28
2023-08-17T19:51:32.077Z,2.92
2023-08-17T19:55:44.633Z,5.63
2023-08-17T19:59:57.551Z,3.03
2023-08-17T20:04:12.688Z,3.45
2023-08-17T20:08:25.624Z,4.18
2023-08-17T20:12:38.167Z,3.17
2023-08-17T20:16:50.808Z,3.78
2023-08-17T20:21:05.051Z,4.38
2023-08-17T20:25:17.712Z,4.15
2023-08-17T20:29:30.934Z,8.73
2023-08-17T20:33:44.071Z,3.45
2023-08-17T20:37:56.664Z,3.72
2023-08-17T20:42:10.536Z,2.78
2023-08-17T20:46:23.127Z,3.63
2023-08-17T20:50:44.053Z,2.83
2023-08-17T20:54:57.563Z,3.17
2023-08-17T20:59:10.133Z,5.32
2023-08-17T21:03:22.681Z,2.22
2023-08-17T21:07:35.834Z,2.58
2023-08-17T21:11:48.844Z,5.95
2023-08-17T21:16:09.221Z,4.03
2023-08-17T21:20:22.836Z,5.63
2023-08-17T21:24:35.377Z,3.83
2023-08-17T21:28:48.286Z,4.78
2023-08-17T21:33:00.821Z,3.75
2023-08-17T21:37:29.301Z,5.50
2023-08-17T21:41:41.984Z,2.97
2023-08-17T21:45:58.803Z,3.25
2023-08-17T21:50:11.955Z,6.75
2023-08-17T21:54:24.502Z,4.28
2023-08-17T21:58:37.004Z,5.20
2023-08-17T22:02:49.574Z,4.18
2023-08-17T22:07:04.226Z,5.55
2023-08-17T22:11:16.708Z,3.70
2023-08-17T22:15:29.313Z,4.10
2023-08-17T22:19:42.302Z,2.63
2023-08-17T22:23:54.803Z,3.50
2023-08-17T22:28:08.132Z,4.75
2023-08-17T22:32:20.729Z,3.13
2023-08-17T22:36:33.214Z,3.00
2023-08-17T22:40:45.788Z,3.58
2023-08-17T22:44:58.272Z,6.90
2023-08-17T22:49:10.750Z,5.60
2023-08-17T22:53:23.901Z,2.78
2023-08-17T22:57:36.892Z,5.28
2023-08-17T23:01:49.638Z,2.95
2023-08-17T23:06:03.618Z,4.00
2023-08-17T23:10:16.114Z,3.05
2023-08-17T23:14:28.608Z,4.85
2023-08-17T23:18:41.090Z,4.38
2023-08-17T23:22:54.062Z,5.70
2023-08-17T23:27:07.807Z,3.03
2023-08-17T23:31:20.360Z,5.20
2023-08-17T23:35:34.998Z,4.13
2023-08-17T23:39:47.507Z,5.32
2023-08-17T23:43:59.999Z,5.00
2023-08-17T23:48:13.531Z,6.53
2023-08-17T23:52:26.175Z,6.28
2023-08-17T23:56:39.102Z,4.70
